createdAt,value
2019-02-19T00:03:04.667Z,99676.14
2019-02-19T00:08:23.285Z,99669.59
2019-02-19T00:13:42.143Z,99662.81
2019-02-19T00:19:00.770Z,99673.18
2019-02-19T00:24:19.327Z,99667.65
2019-02-19T00:29:37.956Z,99666.44
2019-02-19T00:34:56.524Z,99668.33
2019-02-19T00:40:15.145Z,99660.03
2019-02-19T00:45:33.761Z,99661.17
2019-02-19T00:50:52.375Z,99655.84
2019-02-19T00:56:11.124Z,99670.34
2019-02-19T01:01:29.755Z,99668.91
2019-02-19T01:06:48.390Z,99675.64
2019-02-19T01:12:07.017Z,99670.86
2019-02-19T01:17:25.655Z,99678.84
2019-02-19T01:22:44.190Z,99686.33
2019-02-19T01:28:02.820Z,99684.62
2019-02-19T01:33:21.483Z,99692.30
2019-02-19T01:38:40.128Z,99685.77
2019-02-19T01:43:58.695Z,99689.73
2019-02-19T01:49:17.310Z,99688.52
2019-02-19T01:54:37.078Z,99686.64
2019-02-19T01:59:55.672Z,99679.70
2019-02-19T02:05:14.248Z,99689.73
2019-02-19T02:10:32.803Z,99685.47
2019-02-19T02:15:51.423Z,99683.66
2019-02-19T02:21:10.049Z,99693.41
2019-02-19T02:26:28.718Z,99701.85
2019-02-19T02:31:47.351Z,99696.39
2019-02-19T02:37:05.994Z,99697.10
2019-02-19T02:42:24.463Z,99689.73
2019-02-19T02:47:43.098Z,99686.09
2019-02-19T02:53:01.668Z,99698.27
2019-02-19T02:58:20.295Z,99697.78
2019-02-19T03:03:38.834Z,99697.22
2019-02-19T03:08:57.368Z,99698.77
2019-02-19T03:14:16.012Z,99698.16
2019-02-19T03:19:34.653Z,99698.03
2019-02-19T03:24:53.294Z,99691.66
2019-02-19T03:30:11.918Z,99696.95
2019-02-19T03:35:30.559Z,99703.80
2019-02-19T03:40:49.043Z,99709.09
2019-02-19T03:46:12.180Z,99719.16
2019-02-19T03:51:27.981Z,99714.62
2019-02-19T03:56:46.595Z,99721.66
2019-02-19T04:02:05.207Z,99725.51
2019-02-19T04:07:23.829Z,99725.64
2019-02-19T04:12:42.816Z,99743.38
2019-02-19T04:18:01.735Z,99738.72
2019-02-19T04:23:20.383Z,99746.77
2019-02-19T04:28:39.076Z,99745.89
2019-02-19T04:33:57.634Z,99745.18
2019-02-19T04:39:16.262Z,99742.63
2019-02-19T04:44:34.887Z,99738.28
2019-02-19T04:49:53.509Z,99739.80
2019-02-19T04:55:12.151Z,99749.22
2019-02-19T05:00:30.725Z,99755.48
2019-02-19T05:05:49.409Z,99763.20
2019-02-19T05:11:08.043Z,99757.26
2019-02-19T05:16:26.699Z,99757.09
2019-02-19T05:21:45.251Z,99761.48
2019-02-19T05:27:03.881Z,99766.26
2019-02-19T05:32:22.523Z,99782.38
2019-02-19T05:37:41.181Z,99768.98
2019-02-19T05:43:01.502Z,99778.75
2019-02-19T05:48:20.039Z,99772.58
2019-02-19T05:53:38.558Z,99774.23
2019-02-19T05:58:57.184Z,99772.95
2019-02-19T06:04:16.091Z,99772.13
2019-02-19T06:09:34.597Z,99775.95
2019-02-19T06:14:53.211Z,99770.25
2019-02-19T06:20:11.941Z,99784.72
2019-02-19T06:25:32.379Z,99789.30
2019-02-19T06:30:50.999Z,99794.63
2019-02-19T06:36:12.610Z,99796.02
2019-02-19T06:41:31.270Z,99798.81
2019-02-19T06:46:49.830Z,99809.72
2019-02-19T06:52:08.401Z,99830.09
2019-02-19T06:57:26.985Z,99840.44
2019-02-19T07:02:50.204Z,99851.62
2019-02-19T07:08:08.827Z,99850.93
2019-02-19T07:13:27.467Z,99862.24
2019-02-19T07:18:46.034Z,99870.75
2019-02-19T07:24:04.834Z,99881.44
2019-02-19T07:29:23.470Z,99885.20
2019-02-19T07:34:42.077Z,99892.61
2019-02-19T07:40:00.720Z,99894.30
2019-02-19T07:45:19.377Z,99913.61
2019-02-19T07:50:37.819Z,99915.27
2019-02-19T07:55:56.372Z,99917.37
2019-02-19T08:01:14.967Z,99920.18
2019-02-19T08:06:33.577Z,99927.21
2019-02-19T08:11:52.193Z,99937.87
2019-02-19T08:17:10.816Z,99943.83
2019-02-19T08:22:29.349Z,99944.91
2019-02-19T08:27:48.266Z,99947.30
2019-02-19T08:33:06.885Z,99953.60
2019-02-19T08:38:25.518Z,99955.14
2019-02-19T08:43:44.136Z,99963.70
2019-02-19T08:49:02.683Z,99958.26
2019-02-19T08:54:21.307Z,99968.03
2019-02-19T08:59:39.854Z,99956.89
2019-02-19T09:04:58.406Z,99966.61
2019-02-19T09:10:17.286Z,99971.97
2019-02-19T09:15:35.828Z,99976.20
2019-02-19T09:20:54.386Z,99973.62
2019-02-19T09:26:12.971Z,99985.39
2019-02-19T09:31:31.608Z,99982.36
2019-02-19T09:36:50.229Z,99974.80
2019-02-19T09:42:08.731Z,99975.19
2019-02-19T09:47:27.284Z,99976.00
2019-02-19T09:52:45.925Z,99968.50
2019-02-19T09:58:04.533Z,99976.39
2019-02-19T10:03:23.598Z,99982.93
2019-02-19T10:08:42.153Z,99990.23
2019-02-19T10:14:00.688Z,99991.56
2019-02-19T10:19:19.318Z,99989.23
2019-02-19T10:24:37.928Z,100001.66
2019-02-19T10:29:56.786Z,99986.61
2019-02-19T10:35:15.260Z,99997.08
2019-02-19T10:40:33.733Z,99995.38
2019-02-19T10:45:52.350Z,99990.28
2019-02-19T10:51:11.629Z,99991.39
2019-02-19T10:56:30.220Z,100004.19
2019-02-19T11:01:48.973Z,100003.55
2019-02-19T11:07:07.522Z,100002.37
2019-02-19T11:12:26.069Z,100008.31
2019-02-19T11:17:44.705Z,100003.09
2019-02-19T11:23:03.324Z,100006.92
2019-02-19T11:28:22.030Z,100009.31
2019-02-19T11:33:40.609Z,100006.42
2019-02-19T11:38:59.165Z,100007.37
2019-02-19T11:44:17.907Z,100002.92
2019-02-19T11:49:36.478Z,100014.17
2019-02-19T11:54:55.027Z,100012.55
2019-02-19T12:00:20.146Z,100014.40
2019-02-19T12:05:38.759Z,100006.69
2019-02-19T12:10:57.917Z,100003.23
2019-02-19T12:16:16.549Z,100010.72
2019-02-19T12:21:35.182Z,100007.72
2019-02-19T12:26:53.733Z,100013.84
2019-02-19T12:32:12.361Z,100011.13
2019-02-19T12:37:30.962Z,100010.13
2019-02-19T12:42:49.584Z,100011.44
2019-02-19T12:48:08.201Z,100011.11
2019-02-19T12:53:26.752Z,100001.45
2019-02-19T12:58:45.319Z,100009.02
2019-02-19T13:04:03.859Z,100004.23
2019-02-19T13:09:22.411Z,99995.38
2019-02-19T13:14:41.258Z,100000.34
2019-02-19T13:19:59.890Z,100001.75
2019-02-19T13:25:18.512Z,99990.72
2019-02-19T13:30:37.063Z,99990.72
2019-02-19T13:35:58.342Z,100000.13
2019-02-19T13:41:17.087Z,100012.20
2019-02-19T13:46:36.036Z,100006.20
2019-02-19T13:51:56.219Z,100003.47
2019-02-19T13:57:14.923Z,100010.67
2019-02-19T14:02:33.479Z,100011.98
2019-02-19T14:07:52.164Z,100006.23
2019-02-19T14:13:10.803Z,100001.26
2019-02-19T14:18:48.423Z,100005.45
2019-02-19T14:24:26.731Z,100009.99
2019-02-19T14:29:49.822Z,100013.07
2019-02-19T14:35:28.839Z,100010.89
2019-02-19T14:41:05.249Z,100018.41
2019-02-19T14:46:25.646Z,100020.84
2019-02-19T14:51:55.547Z,100017.88
2019-02-19T14:57:28.069Z,100018.91
2019-02-19T15:03:04.312Z,100013.87
2019-02-19T15:08:36.766Z,100009.31
2019-02-19T15:14:02.700Z,100030.16
2019-02-19T15:19:39.253Z,100014.22
2019-02-19T15:24:59.704Z,100022.68
2019-02-19T15:30:28.743Z,100024.80
2019-02-19T15:36:04.055Z,100018.91
2019-02-19T15:41:39.797Z,100018.91
2019-02-19T15:47:16.073Z,100028.98
2019-02-19T15:52:38.950Z,100021.60
2019-02-19T15:58:05.070Z,100023.81
2019-02-19T16:03:29.850Z,100024.92
2019-02-19T16:08:58.384Z,100028.66
2019-02-19T16:14:35.096Z,100030.20
2019-02-19T16:20:00.511Z,100030.59
2019-02-19T16:25:39.468Z,100027.63
2019-02-19T16:31:08.201Z,100045.53
2019-02-19T16:36:40.644Z,100041.92
2019-02-19T16:42:06.701Z,100035.00
2019-02-19T16:47:41.952Z,100040.42
2019-02-19T16:53:02.222Z,100041.11
2019-02-19T16:58:28.359Z,100041.58
2019-02-19T17:03:59.711Z,100051.36
2019-02-19T17:09:19.907Z,100049.67
2019-02-19T17:14:56.699Z,100050.37
2019-02-19T17:20:29.351Z,100058.27
2019-02-19T17:25:47.940Z,100060.87
2019-02-19T17:31:08.261Z,100073.23
2019-02-19T17:36:28.523Z,100076.84
2019-02-19T17:41:57.606Z,100070.80
2019-02-19T17:47:33.104Z,100078.89
2019-02-19T17:53:05.669Z,100085.49
2019-02-19T17:58:25.858Z,100089.09
2019-02-19T18:03:46.126Z,100092.79
2019-02-19T18:09:23.690Z,100094.95
2019-02-19T18:14:55.650Z,100110.08
2019-02-19T18:20:14.394Z,100116.77
2019-02-19T18:25:33.175Z,100125.20
2019-02-19T18:30:51.804Z,100128.66
2019-02-19T18:36:10.356Z,100122.03
2019-02-19T18:41:28.980Z,100117.61
2019-02-19T18:46:47.557Z,100116.56
2019-02-19T18:52:06.187Z,100125.42
2019-02-19T18:57:24.776Z,100122.42
2019-02-19T19:02:43.398Z,100125.37
2019-02-19T19:08:01.890Z,100123.62
2019-02-19T19:13:20.492Z,100131.69
2019-02-19T19:18:39.198Z,100135.28
2019-02-19T19:23:58.144Z,100139.14
2019-02-19T19:29:17.000Z,100132.55
2019-02-19T19:34:35.685Z,100139.00
2019-02-19T19:39:54.204Z,100146.09
2019-02-19T19:45:13.146Z,100144.06
2019-02-19T19:50:31.652Z,100143.57
2019-02-19T19:55:50.209Z,100148.28
2019-02-19T20:01:09.331Z,100149.59
2019-02-19T20:06:29.437Z,100150.45
2019-02-19T20:11:48.051Z,100145.48
2019-02-19T20:17:06.536Z,100152.45
2019-02-19T20:22:25.129Z,100159.03
2019-02-19T20:27:43.775Z,100151.75
2019-02-19T20:33:02.394Z,100159.73
2019-02-19T20:38:21.054Z,100151.47
2019-02-19T20:43:39.760Z,100163.00
2019-02-19T20:48:58.377Z,100164.47
2019-02-19T20:54:17.042Z,100165.00
2019-02-19T20:59:35.631Z,100170.62
2019-02-19T21:04:54.188Z,100177.38
2019-02-19T21:10:17.596Z,100176.33
2019-02-19T21:15:42.661Z,100178.12
2019-02-19T21:21:02.130Z,100175.19
2019-02-19T21:26:20.737Z,100178.70
2019-02-19T21:31:40.426Z,100167.69
2019-02-19T21:37:04.813Z,100178.70
2019-02-19T21:42:24.110Z,100184.18
2019-02-19T21:47:42.880Z,100183.49
2019-02-19T21:53:01.652Z,100180.39
2019-02-19T21:58:20.260Z,100180.44
2019-02-19T22:03:39.821Z,100184.73
2019-02-19T22:08:58.542Z,100179.95
2019-02-19T22:14:17.190Z,100175.89
2019-02-19T22:19:35.874Z,100184.44
2019-02-19T22:24:56.083Z,100177.84
2019-02-19T22:30:14.716Z,100184.09
2019-02-19T22:35:36.033Z,100182.41
2019-02-19T22:40:55.440Z,100179.59
2019-02-19T22:46:15.935Z,100184.66
2019-02-19T22:51:34.552Z,100185.59
2019-02-19T22:56:53.708Z,100186.59
2019-02-19T23:02:14.490Z,100187.52
2019-02-19T23:07:33.277Z,100186.25
2019-02-19T23:12:52.099Z,100195.12
2019-02-19T23:18:10.729Z,100203.70
2019-02-19T23:23:29.477Z,100202.99
2019-02-19T23:28:48.118Z,100196.09
2019-02-19T23:34:06.668Z,100192.45
2019-02-19T23:39:25.572Z,100197.58
2019-02-19T23:44:44.062Z,100199.53
2019-02-19T23:50:02.674Z,100193.66
2019-02-19T23:55:21.225Z,100198.62
